Time;durP1;ratioP1;P1;durP2;ratioP2;P2;SDS_P1;SDS_P2;PMS_P1;PMS_P2;Temp;Humidity;BMP_temperature;BMP_pressure;BME280_temperature;BME280_humidity;BME280_pressure;Samples;Min_cycle;Max_cycle;Signal;HPM_P1;HPM_P2
2021/05/08 00:02:15;;;;;;;4.37;3.67;;;;;;;;;;5041456;28;20186;-77
2021/05/08 00:04:41;;;;;;;3.50;3.20;;;;;;;;;;5033071;28;20447;-77
2021/05/08 00:07:07;;;;;;;4.10;3.08;;;;;;;;;;5044628;28;20562;-76
2021/05/08 00:09:33;;;;;;;3.25;2.95;;;;;;;;;;5034566;28;20185;-76
2021/05/08 00:11:59;;;;;;;4.27;3.40;;;;;;;;;;5036897;28;20238;-76
2021/05/08 00:14:26;;;;;;;3.20;2.90;;;;;;;;;;5043786;28;20755;-76
2021/05/08 00:16:53;;;;;;;3.67;2.60;;;;;;;;;;5035859;28;20189;-76
2021/05/08 00:19:19;;;;;;;4.78;4.07;;;;;;;;;;5044598;28;20192;-76
2021/05/08 00:21:45;;;;;;;4.80;2.92;;;;;;;;;;5035206;28;20175;-76
2021/05/08 00:24:12;;;;;;;3.00;2.70;;;;;;;;;;5038108;28;20197;-76
2021/05/08 00:26:38;;;;;;;3.33;3.03;;;;;;;;;;5031671;28;20301;-76
2021/05/08 00:29:04;;;;;;;4.05;2.85;;;;;;;;;;5033321;28;20240;-76
2021/05/08 00:31:30;;;;;;;2.78;2.55;;;;;;;;;;5032404;28;20208;-76
2021/05/08 00:33:57;;;;;;;5.00;2.83;;;;;;;;;;5042869;28;20182;-76
2021/05/08 00:36:23;;;;;;;3.17;2.70;;;;;;;;;;5062222;28;20369;-76
2021/05/08 00:38:49;;;;;;;3.20;2.90;;;;;;;;;;5037898;28;20182;-76
2021/05/08 00:41:15;;;;;;;2.75;2.53;;;;;;;;;;5038058;28;20670;-76
2021/05/08 00:43:41;;;;;;;3.20;2.90;;;;;;;;;;5043950;28;20670;-77
2021/05/08 00:46:07;;;;;;;3.17;2.90;;;;;;;;;;5049382;28;20182;-76
2021/05/08 00:48:33;;;;;;;3.20;2.87;;;;;;;;;;5035916;28;20197;-76
2021/05/08 00:50:59;;;;;;;3.13;2.75;;;;;;;;;;5044095;28;20474;-76
2021/05/08 00:53:25;;;;;;;4.03;2.70;;;;;;;;;;5041925;28;20241;-76
2021/05/08 00:55:51;;;;;;;2.50;2.25;;;;;;;;;;5031716;28;20212;-76
2021/05/08 00:58:18;;;;;;;3.25;2.58;;;;;;;;;;5044348;28;20213;-76
2021/05/08 01:00:44;;;;;;;2.90;2.65;;;;;;;;;;5044988;28;20274;-76
2021/05/08 01:03:12;;;;;;;2.65;2.33;;;;;;;;;;5039396;28;20416;-76
2021/05/08 01:05:38;;;;;;;4.07;2.38;;;;;;;;;;5043720;28;20613;-76
2021/05/08 01:08:05;;;;;;;3.28;2.70;;;;;;;;;;5040524;28;20733;-76
2021/05/08 01:10:33;;;;;;;2.35;2.00;;;;;;;;;;5042049;28;20224;-76
2021/05/08 01:12:59;;;;;;;2.70;2.25;;;;;;;;;;5042781;28;20257;-76
2021/05/08 01:15:26;;;;;;;2.42;2.10;;;;;;;;;;5026271;28;21355;-76
2021/05/08 01:17:52;;;;;;;2.45;2.25;;;;;;;;;;5035076;28;20201;-76
2021/05/08 01:20:18;;;;;;;2.47;2.28;;;;;;;;;;5040010;28;20583;-76
2021/05/08 01:22:45;;;;;;;3.10;2.17;;;;;;;;;;5033284;28;20190;-76
2021/05/08 01:25:13;;;;;;;2.20;2.00;;;;;;;;;;5054678;28;20199;-76
2021/05/08 01:27:50;;;;;;;2.40;2.20;;;;;;;;;;5030865;28;20185;-76
2021/05/08 01:30:17;;;;;;;4.55;2.60;;;;;;;;;;5037304;28;20190;-76
2021/05/08 01:32:43;;;;;;;2.40;2.20;;;;;;;;;;5031827;28;20211;-76
2021/05/08 01:35:09;;;;;;;2.40;2.20;;;;;;;;;;5036340;28;20189;-76
2021/05/08 01:37:35;;;;;;;2.63;2.17;;;;;;;;;;5034250;28;20543;-76
2021/05/08 01:40:05;;;;;;;2.65;2.30;;;;;;;;;;5031123;28;20249;-76
2021/05/08 01:42:32;;;;;;;2.42;2.22;;;;;;;;;;5031416;28;20166;-76
2021/05/08 01:44:57;;;;;;;2.78;1.80;;;;;;;;;;5042329;28;20226;-76
2021/05/08 01:47:23;;;;;;;4.47;2.13;;;;;;;;;;5041202;28;20194;-76
2021/05/08 01:49:49;;;;;;;2.03;1.83;;;;;;;;;;5039831;28;20483;-76
2021/05/08 01:52:15;;;;;;;2.53;2.07;;;;;;;;;;5029712;28;20463;-76
2021/05/08 01:54:41;;;;;;;4.93;2.50;;;;;;;;;;5042878;28;20412;-76
2021/05/08 01:57:07;;;;;;;3.50;2.10;;;;;;;;;;5036837;28;20206;-76
2021/05/08 01:59:33;;;;;;;2.40;2.00;;;;;;;;;;5036537;28;20441;-76
2021/05/08 02:01:59;;;;;;;2.77;2.57;;;;;;;;;;5034897;28;20436;-76
2021/05/08 02:04:25;;;;;;;3.73;2.43;;;;;;;;;;5042299;28;20890;-76
2021/05/08 02:06:53;;;;;;;3.03;2.63;;;;;;;;;;5025284;28;20444;-76
2021/05/08 02:09:19;;;;;;;3.28;2.30;;;;;;;;;;5036171;28;20495;-76
2021/05/08 02:11:45;;;;;;;2.78;2.58;;;;;;;;;;5036911;28;20711;-76
2021/05/08 02:14:11;;;;;;;2.20;2.00;;;;;;;;;;5035697;28;20212;-76
2021/05/08 02:16:37;;;;;;;2.65;2.45;;;;;;;;;;5057334;28;20204;-76
2021/05/08 02:19:03;;;;;;;2.77;1.90;;;;;;;;;;5042895;28;20189;-76
2021/05/08 02:21:29;;;;;;;2.80;2.35;;;;;;;;;;5044230;28;20439;-76
2021/05/08 02:23:55;;;;;;;2.30;2.10;;;;;;;;;;5038376;28;20185;-76
2021/05/08 02:26:21;;;;;;;2.47;2.27;;;;;;;;;;5035876;28;20194;-76
2021/05/08 02:28:47;;;;;;;3.15;2.78;;;;;;;;;;5039697;28;20910;-76
2021/05/08 02:31:13;;;;;;;3.20;2.13;;;;;;;;;;5041261;28;20224;-76
2021/05/08 02:33:39;;;;;;;2.35;2.15;;;;;;;;;;5033028;28;20503;-76
2021/05/08 02:36:05;;;;;;;2.63;2.40;;;;;;;;;;5035646;28;20257;-76
2021/05/08 02:38:31;;;;;;;2.58;2.22;;;;;;;;;;5036152;28;20444;-76
2021/05/08 02:40:57;;;;;;;2.30;2.10;;;;;;;;;;5033470;28;20194;-79
2021/05/08 02:43:23;;;;;;;3.27;2.63;;;;;;;;;;5057423;28;20471;-76
2021/05/08 02:45:49;;;;;;;2.00;1.83;;;;;;;;;;5031179;28;20522;-76
2021/05/08 02:48:15;;;;;;;2.60;2.30;;;;;;;;;;5035695;28;20417;-76
2021/05/08 02:50:41;;;;;;;3.00;2.30;;;;;;;;;;5032326;28;20437;-76
2021/05/08 02:53:07;;;;;;;2.15;2.05;;;;;;;;;;5028654;28;20249;-76
2021/05/08 02:55:33;;;;;;;2.70;2.50;;;;;;;;;;5052966;28;20208;-76
2021/05/08 02:58:02;;;;;;;2.57;2.37;;;;;;;;;;5040449;28;20178;-76
2021/05/08 03:00:28;;;;;;;2.53;2.33;;;;;;;;;;5032824;28;20439;-76
2021/05/08 03:02:54;;;;;;;2.55;2.35;;;;;;;;;;5033306;28;20795;-76
2021/05/08 03:05:20;;;;;;;3.33;2.45;;;;;;;;;;5029937;28;20190;-76
2021/05/08 03:07:46;;;;;;;3.35;2.50;;;;;;;;;;5041206;28;20249;-76
2021/05/08 03:10:12;;;;;;;3.28;2.58;;;;;;;;;;5041454;28;20197;-76
2021/05/08 03:12:38;;;;;;;2.80;2.60;;;;;;;;;;5031126;28;20214;-76
2021/05/08 03:15:05;;;;;;;2.45;2.22;;;;;;;;;;5042319;28;20562;-76
2021/05/08 03:17:31;;;;;;;2.72;2.30;;;;;;;;;;5041434;28;20200;-76
2021/05/08 03:19:57;;;;;;;2.70;2.50;;;;;;;;;;5038137;28;20246;-76
2021/05/08 03:22:23;;;;;;;3.63;2.40;;;;;;;;;;5029985;28;20185;-76
2021/05/08 03:24:49;;;;;;;2.13;1.92;;;;;;;;;;5036086;28;20167;-77
2021/05/08 03:27:15;;;;;;;2.45;1.83;;;;;;;;;;5034365;28;20181;-76
2021/05/08 03:29:41;;;;;;;2.33;2.13;;;;;;;;;;5035949;28;20216;-76
2021/05/08 03:32:07;;;;;;;2.53;2.33;;;;;;;;;;5033138;28;20463;-79
2021/05/08 03:34:33;;;;;;;4.10;2.50;;;;;;;;;;5029848;28;20464;-76
2021/05/08 03:36:59;;;;;;;2.53;2.28;;;;;;;;;;5030422;28;20208;-76
2021/05/08 03:39:25;;;;;;;2.25;2.05;;;;;;;;;;5061390;28;20177;-76
2021/05/08 03:41:51;;;;;;;3.38;2.50;;;;;;;;;;5037257;28;20190;-76
2021/05/08 03:44:17;;;;;;;2.70;2.50;;;;;;;;;;5035379;28;20574;-76
2021/05/08 03:46:43;;;;;;;2.85;2.33;;;;;;;;;;5045140;28;20236;-76
2021/05/08 03:49:09;;;;;;;2.22;2.03;;;;;;;;;;5045062;28;20209;-76
2021/05/08 03:51:35;;;;;;;2.80;2.10;;;;;;;;;;5040992;28;20213;-76
2021/05/08 03:54:01;;;;;;;2.45;2.25;;;;;;;;;;5046238;28;20178;-76
2021/05/08 03:56:27;;;;;;;2.58;2.38;;;;;;;;;;5040735;28;20277;-76
2021/05/08 03:58:53;;;;;;;3.65;2.05;;;;;;;;;;5040813;28;20193;-76
2021/05/08 04:01:19;;;;;;;2.85;2.55;;;;;;;;;;5049655;28;20190;-77
2021/05/08 04:03:45;;;;;;;2.67;2.27;;;;;;;;;;5041490;28;20246;-76
2021/05/08 04:06:11;;;;;;;2.20;2.00;;;;;;;;;;5038505;28;20457;-77
2021/05/08 04:08:37;;;;;;;2.85;2.58;;;;;;;;;;5039080;28;20206;-76
2021/05/08 04:11:03;;;;;;;2.50;2.30;;;;;;;;;;5037251;28;20197;-76
2021/05/08 04:13:29;;;;;;;2.30;2.05;;;;;;;;;;5034255;28;20225;-76
2021/05/08 04:15:55;;;;;;;2.65;2.30;;;;;;;;;;5033904;28;20177;-76
2021/05/08 04:18:21;;;;;;;3.10;2.25;;;;;;;;;;5061818;28;20553;-76
2021/05/08 04:20:47;;;;;;;2.63;2.42;;;;;;;;;;5044650;28;20678;-76
2021/05/08 04:23:13;;;;;;;2.88;2.40;;;;;;;;;;5038810;28;20189;-76
2021/05/08 04:25:40;;;;;;;2.03;1.92;;;;;;;;;;5038514;28;20177;-75
2021/05/08 04:28:10;;;;;;;2.50;2.30;;;;;;;;;;5039571;28;20182;-76
2021/05/08 04:30:36;;;;;;;5.43;3.38;;;;;;;;;;5041103;28;20174;-75
2021/05/08 04:33:02;;;;;;;2.35;2.15;;;;;;;;;;5038939;28;20221;-76
2021/05/08 04:35:28;;;;;;;2.42;2.22;;;;;;;;;;5035195;28;20197;-77
2021/05/08 04:37:54;;;;;;;2.05;1.92;;;;;;;;;;5042702;28;20186;-76
2021/05/08 04:40:20;;;;;;;2.27;2.13;;;;;;;;;;5059400;28;20192;-76
2021/05/08 04:42:46;;;;;;;2.90;2.23;;;;;;;;;;5042026;28;20429;-78
2021/05/08 04:45:12;;;;;;;2.30;2.10;;;;;;;;;;5037827;28;20530;-76
2021/05/08 04:47:38;;;;;;;4.03;2.08;;;;;;;;;;5038453;28;20441;-78
2021/05/08 04:50:04;;;;;;;2.50;2.30;;;;;;;;;;5033957;28;20197;-76
2021/05/08 04:52:30;;;;;;;1.95;1.85;;;;;;;;;;5032491;28;20842;-78
2021/05/08 04:54:56;;;;;;;1.90;1.80;;;;;;;;;;5031961;28;20189;-76
2021/05/08 04:57:22;;;;;;;3.90;2.42;;;;;;;;;;5061382;28;20173;-77
2021/05/08 04:59:48;;;;;;;2.53;1.95;;;;;;;;;;5037244;28;20181;-76
2021/05/08 05:02:14;;;;;;;2.95;2.05;;;;;;;;;;5038244;28;20273;-76
2021/05/08 05:04:40;;;;;;;2.25;2.15;;;;;;;;;;5033108;28;20182;-78
2021/05/08 05:07:07;;;;;;;3.30;2.60;;;;;;;;;;5057161;28;20692;-76
2021/05/08 05:09:33;;;;;;;2.28;2.17;;;;;;;;;;5039158;28;20174;-77
2021/05/08 05:11:59;;;;;;;2.40;2.30;;;;;;;;;;5036839;28;20232;-76
2021/05/08 05:14:27;;;;;;;2.65;2.33;;;;;;;;;;5029906;28;20194;-76
2021/05/08 05:16:53;;;;;;;1.73;1.63;;;;;;;;;;5034253;28;20206;-78
2021/05/08 05:19:19;;;;;;;2.33;1.93;;;;;;;;;;5030140;28;20181;-78
2021/05/08 05:21:45;;;;;;;1.95;1.75;;;;;;;;;;5029341;28;20421;-77
2021/05/08 05:24:11;;;;;;;2.22;1.92;;;;;;;;;;5055954;28;20244;-76
2021/05/08 05:26:37;;;;;;;2.55;2.35;;;;;;;;;;5033735;28;20190;-76
2021/05/08 05:29:03;;;;;;;3.75;2.20;;;;;;;;;;5031284;28;20213;-76
2021/05/08 05:31:30;;;;;;;3.25;2.20;;;;;;;;;;5027997;28;20213;-75
2021/05/08 05:33:56;;;;;;;2.08;1.70;;;;;;;;;;5040449;28;20178;-77
2021/05/08 05:36:21;;;;;;;1.93;1.43;;;;;;;;;;5060136;28;20271;-76
2021/05/08 05:38:47;;;;;;;2.53;1.97;;;;;;;;;;5035701;28;20459;-76
2021/05/08 05:41:13;;;;;;;2.40;2.00;;;;;;;;;;5034221;28;20448;-76
2021/05/08 05:43:39;;;;;;;1.67;1.40;;;;;;;;;;5058348;28;20494;-76
2021/05/08 05:46:05;;;;;;;2.27;2.17;;;;;;;;;;5027460;28;20209;-76
2021/05/08 05:48:31;;;;;;;2.20;1.90;;;;;;;;;;5034022;28;20417;-76
2021/05/08 05:50:57;;;;;;;2.13;1.80;;;;;;;;;;5036542;28;20213;-76
2021/05/08 05:53:23;;;;;;;2.40;2.20;;;;;;;;;;5037213;28;20188;-75
2021/05/08 05:55:49;;;;;;;2.10;1.73;;;;;;;;;;5033127;28;20689;-76
2021/05/08 05:58:15;;;;;;;2.42;1.85;;;;;;;;;;5042290;28;20519;-76
2021/05/08 06:00:41;;;;;;;2.88;1.98;;;;;;;;;;5030926;28;20178;-76
2021/05/08 06:03:07;;;;;;;3.03;2.30;;;;;;;;;;5039464;28;20543;-76
2021/05/08 06:05:33;;;;;;;1.85;1.75;;;;;;;;;;5039766;28;20458;-76
2021/05/08 06:07:59;;;;;;;1.83;1.58;;;;;;;;;;5034358;28;20182;-76
2021/05/08 06:10:25;;;;;;;1.70;1.60;;;;;;;;;;5057995;28;20216;-76
2021/05/08 06:12:51;;;;;;;3.80;2.20;;;;;;;;;;5040735;28;20202;-76
2021/05/08 06:15:17;;;;;;;3.53;2.10;;;;;;;;;;5032271;28;20421;-76
2021/05/08 06:17:43;;;;;;;2.10;1.90;;;;;;;;;;5041370;28;20424;-76
2021/05/08 06:20:10;;;;;;;1.98;1.88;;;;;;;;;;5042524;28;20192;-75
2021/05/08 06:22:36;;;;;;;1.90;1.80;;;;;;;;;;5054543;28;20645;-76
2021/05/08 06:25:02;;;;;;;4.82;2.35;;;;;;;;;;5031227;28;20209;-76
2021/05/08 06:27:28;;;;;;;3.20;1.90;;;;;;;;;;5039051;28;20181;-76
2021/05/08 06:29:54;;;;;;;2.55;1.83;;;;;;;;;;5034168;28;20433;-77
2021/05/08 06:32:20;;;;;;;2.75;1.90;;;;;;;;;;5027463;28;20228;-76
2021/05/08 06:34:46;;;;;;;2.45;2.25;;;;;;;;;;5041400;28;20183;-76
2021/05/08 06:37:12;;;;;;;5.18;1.92;;;;;;;;;;5046227;28;20574;-76
2021/05/08 06:39:38;;;;;;;2.20;1.90;;;;;;;;;;5039684;28;20639;-76
2021/05/08 06:42:04;;;;;;;2.28;2.08;;;;;;;;;;5034442;28;20206;-77
2021/05/08 06:44:30;;;;;;;2.60;2.13;;;;;;;;;;5030988;28;20229;-76
2021/05/08 06:46:56;;;;;;;2.27;2.07;;;;;;;;;;5032415;28;20216;-76
2021/05/08 06:49:22;;;;;;;2.20;2.00;;;;;;;;;;5034780;28;21630;-76
2021/05/08 06:51:48;;;;;;;2.65;2.10;;;;;;;;;;5032592;28;20206;-76
2021/05/08 06:54:14;;;;;;;2.87;2.57;;;;;;;;;;5030605;28;20683;-76
2021/05/08 06:56:41;;;;;;;4.20;1.92;;;;;;;;;;5035027;28;20890;-77
2021/05/08 06:59:07;;;;;;;2.67;1.92;;;;;;;;;;5036226;28;20251;-76
2021/05/08 07:01:33;;;;;;;3.40;2.00;;;;;;;;;;5027486;28;20193;-77
2021/05/08 07:03:59;;;;;;;5.30;1.73;;;;;;;;;;5038770;28;20186;-76
2021/05/08 07:06:25;;;;;;;2.03;1.67;;;;;;;;;;5048458;28;20194;-76
2021/05/08 07:08:51;;;;;;;2.20;1.95;;;;;;;;;;5031217;28;20459;-76
2021/05/08 07:11:17;;;;;;;4.38;2.47;;;;;;;;;;5039626;28;20213;-75
2021/05/08 07:13:43;;;;;;;3.03;2.50;;;;;;;;;;5037782;28;20185;-76
2021/05/08 07:16:09;;;;;;;2.40;2.10;;;;;;;;;;5034076;28;20569;-74
2021/05/08 07:18:36;;;;;;;2.03;1.92;;;;;;;;;;5029793;28;20180;-75
2021/05/08 07:21:02;;;;;;;2.60;2.03;;;;;;;;;;5030900;28;20537;-77
2021/05/08 07:23:28;;;;;;;3.05;2.00;;;;;;;;;;5036558;28;20665;-75
2021/05/08 07:25:54;;;;;;;3.80;2.27;;;;;;;;;;5033538;28;20182;-75
2021/05/08 07:28:21;;;;;;;1.65;1.55;;;;;;;;;;5040938;28;20448;-75
2021/05/08 07:30:48;;;;;;;3.33;2.45;;;;;;;;;;5039549;28;20179;-74
2021/05/08 07:33:14;;;;;;;2.38;1.85;;;;;;;;;;5037453;28;20206;-76
2021/05/08 07:35:41;;;;;;;3.17;1.90;;;;;;;;;;5033248;28;20188;-76
2021/05/08 07:38:07;;;;;;;3.15;2.30;;;;;;;;;;5030412;28;20197;-76
2021/05/08 07:40:34;;;;;;;3.22;2.58;;;;;;;;;;5047757;28;20198;-76
2021/05/08 07:43:00;;;;;;;2.65;1.83;;;;;;;;;;5029621;28;20534;-76
2021/05/08 07:45:26;;;;;;;2.35;1.55;;;;;;;;;;5031383;28;20244;-76
2021/05/08 07:47:53;;;;;;;5.28;1.80;;;;;;;;;;5033157;28;20193;-75
2021/05/08 07:50:19;;;;;;;4.15;1.77;;;;;;;;;;5036928;28;20178;-76
2021/05/08 07:52:45;;;;;;;1.65;1.55;;;;;;;;;;5030399;28;20213;-75
2021/05/08 07:55:12;;;;;;;3.05;2.05;;;;;;;;;;5053679;28;20293;-75
2021/05/08 07:57:38;;;;;;;3.92;2.22;;;;;;;;;;5028639;28;20183;-77
2021/05/08 08:00:06;;;;;;;4.55;2.10;;;;;;;;;;5036712;28;20178;-76
2021/05/08 08:02:32;;;;;;;3.15;2.08;;;;;;;;;;5031899;28;20175;-76
2021/05/08 08:04:59;;;;;;;2.78;1.80;;;;;;;;;;5031789;28;20186;-76
2021/05/08 08:07:24;;;;;;;2.50;1.95;;;;;;;;;;5037365;28;20190;-78
2021/05/08 08:09:50;;;;;;;3.67;2.10;;;;;;;;;;5031909;28;20191;-74
2021/05/08 08:12:16;;;;;;;2.87;2.57;;;;;;;;;;5041753;28;20475;-76
2021/05/08 08:14:42;;;;;;;1.92;1.83;;;;;;;;;;5032233;28;20470;-75
2021/05/08 08:17:08;;;;;;;3.00;1.97;;;;;;;;;;5044112;28;20190;-74
2021/05/08 08:19:34;;;;;;;2.95;1.92;;;;;;;;;;5039208;28;20432;-74
2021/05/08 08:22:00;;;;;;;2.97;2.40;;;;;;;;;;5037465;28;20208;-75
2021/05/08 08:24:26;;;;;;;4.85;2.65;;;;;;;;;;5040268;28;20432;-75
2021/05/08 08:26:52;;;;;;;2.70;2.40;;;;;;;;;;5038560;28;20198;-74
2021/05/08 08:29:19;;;;;;;3.47;2.38;;;;;;;;;;5033573;28;20187;-76
2021/05/08 08:31:45;;;;;;;3.08;2.22;;;;;;;;;;5043001;28;20214;-75
2021/05/08 08:34:11;;;;;;;3.67;2.58;;;;;;;;;;5039061;28;20179;-76
2021/05/08 08:36:37;;;;;;;6.57;2.85;;;;;;;;;;5037695;28;20617;-76
2021/05/08 08:39:04;;;;;;;4.30;2.90;;;;;;;;;;5047765;28;20194;-76
2021/05/08 08:41:30;;;;;;;6.32;3.55;;;;;;;;;;5043471;28;20444;-75
2021/05/08 08:43:56;;;;;;;3.60;2.63;;;;;;;;;;5057912;28;20210;-75
2021/05/08 08:46:22;;;;;;;2.87;2.67;;;;;;;;;;5043131;28;20193;-74
2021/05/08 08:48:48;;;;;;;3.20;2.90;;;;;;;;;;5054652;28;20461;-76
2021/05/08 08:51:15;;;;;;;3.83;3.35;;;;;;;;;;5039623;28;20277;-76
2021/05/08 08:53:41;;;;;;;3.88;3.13;;;;;;;;;;5049709;28;20595;-80
2021/05/08 08:56:07;;;;;;;3.75;2.88;;;;;;;;;;5038607;28;20210;-75
2021/05/08 08:58:36;;;;;;;4.90;2.97;;;;;;;;;;5033818;28;20198;-78
2021/05/08 09:01:03;;;;;;;3.33;2.38;;;;;;;;;;5032926;28;20183;-75
2021/05/08 09:03:29;;;;;;;3.58;2.60;;;;;;;;;;5042233;28;20186;-75
2021/05/08 09:05:55;;;;;;;4.60;3.10;;;;;;;;;;5039096;28;20654;-75
2021/05/08 09:08:21;;;;;;;3.20;2.22;;;;;;;;;;5030785;28;20594;-75
2021/05/08 09:10:49;;;;;;;5.03;2.78;;;;;;;;;;5035522;28;20195;-74
2021/05/08 09:13:23;;;;;;;5.78;2.53;;;;;;;;;;5059352;28;20242;-82
2021/05/08 09:15:52;;;;;;;6.85;3.70;;;;;;;;;;5026507;28;20185;-78
2021/05/08 09:18:31;;;;;;;3.38;2.72;;;;;;;;;;5034344;28;20265;-77
2021/05/08 09:20:58;;;;;;;5.18;2.80;;;;;;;;;;5034121;28;20202;-77
2021/05/08 09:23:25;;;;;;;3.65;2.55;;;;;;;;;;5032570;28;20244;-76
2021/05/08 09:26:18;;;;;;;3.28;2.65;;;;;;;;;;5038044;28;20184;-79
2021/05/08 09:28:54;;;;;;;3.92;3.20;;;;;;;;;;5036659;28;20190;-77
2021/05/08 09:31:20;;;;;;;5.18;2.90;;;;;;;;;;5056381;28;20232;-78
2021/05/08 09:33:53;;;;;;;6.23;3.47;;;;;;;;;;5041889;28;20662;-79
2021/05/08 09:36:19;;;;;;;5.30;3.30;;;;;;;;;;5037895;28;20520;-77
2021/05/08 09:38:46;;;;;;;5.67;3.00;;;;;;;;;;5034303;28;20243;-79
2021/05/08 09:41:16;;;;;;;4.50;3.30;;;;;;;;;;5040503;28;20448;-78
2021/05/08 09:43:42;;;;;;;3.13;2.83;;;;;;;;;;5031752;28;20659;-77
2021/05/08 09:46:09;;;;;;;3.08;2.78;;;;;;;;;;5057215;28;20199;-77
2021/05/08 09:48:36;;;;;;;3.22;2.55;;;;;;;;;;5034819;28;20186;-81
2021/05/08 09:51:14;;;;;;;4.03;2.83;;;;;;;;;;5030472;28;20228;-77
2021/05/08 09:53:40;;;;;;;5.35;3.22;;;;;;;;;;5028343;28;20179;-76
2021/05/08 09:56:06;;;;;;;9.68;3.47;;;;;;;;;;5033130;28;20197;-79
2021/05/08 09:58:32;;;;;;;5.68;2.72;;;;;;;;;;5032495;28;20186;-78
2021/05/08 10:00:58;;;;;;;4.15;2.70;;;;;;;;;;5037659;28;20209;-77
2021/05/08 10:03:24;;;;;;;3.15;2.42;;;;;;;;;;5031003;28;20193;-76
2021/05/08 10:06:11;;;;;;;3.67;2.22;;;;;;;;;;5035516;28;20206;-77
2021/05/08 10:08:37;;;;;;;12.20;3.50;;;;;;;;;;5035837;28;20179;-77
2021/05/08 10:11:04;;;;;;;2.90;2.60;;;;;;;;;;5050014;28;20230;-74
2021/05/08 10:13:33;;;;;;;4.10;3.00;;;;;;;;;;5041580;28;20794;-76
2021/05/08 10:16:00;;;;;;;3.85;3.08;;;;;;;;;;5057308;28;20174;-75
2021/05/08 10:18:26;;;;;;;8.00;4.32;;;;;;;;;;5043568;28;20162;-80
2021/05/08 10:20:53;;;;;;;6.13;2.95;;;;;;;;;;5037056;28;20185;-79
2021/05/08 10:23:20;;;;;;;5.32;2.88;;;;;;;;;;5030157;28;20182;-78
2021/05/08 10:25:46;;;;;;;4.32;3.17;;;;;;;;;;5030540;28;20301;-76
2021/05/08 10:28:12;;;;;;;3.38;2.90;;;;;;;;;;5029101;28;20296;-77
2021/05/08 10:30:44;;;;;;;2.90;2.30;;;;;;;;;;5053798;28;20179;-77
2021/05/08 10:33:16;;;;;;;6.68;2.95;;;;;;;;;;5040137;28;20232;-77
2021/05/08 10:35:43;;;;;;;3.33;3.00;;;;;;;;;;5039802;28;20188;-76
2021/05/08 10:38:18;;;;;;;4.05;2.70;;;;;;;;;;5041927;28;20193;-76
2021/05/08 10:40:48;;;;;;;6.07;2.70;;;;;;;;;;5031260;28;20315;-76
2021/05/08 10:43:33;;;;;;;6.13;2.78;;;;;;;;;;5041881;28;20188;-75
2021/05/08 10:45:59;;;;;;;4.35;2.80;;;;;;;;;;5041712;28;20264;-77
2021/05/08 10:48:25;;;;;;;4.70;3.20;;;;;;;;;;5036870;28;20182;-76
2021/05/08 10:50:55;;;;;;;4.70;3.50;;;;;;;;;;5033810;28;20957;-76
2021/05/08 10:53:21;;;;;;;4.47;2.58;;;;;;;;;;5035651;28;20433;-76
2021/05/08 10:55:48;;;;;;;6.20;2.90;;;;;;;;;;5029835;28;20186;-75
2021/05/08 10:58:17;;;;;;;3.50;2.97;;;;;;;;;;5037023;28;20187;-77
2021/05/08 11:00:52;;;;;;;4.80;2.50;;;;;;;;;;5042748;28;20178;-77
2021/05/08 11:03:22;;;;;;;7.05;2.97;;;;;;;;;;5032538;28;20269;-76
2021/05/08 11:05:51;;;;;;;4.25;2.47;;;;;;;;;;5036585;28;20707;-76
2021/05/08 11:08:26;;;;;;;4.53;2.50;;;;;;;;;;5029916;28;20192;-76
2021/05/08 11:10:56;;;;;;;3.55;2.85;;;;;;;;;;5032208;28;20201;-76
2021/05/08 11:13:24;;;;;;;5.47;3.30;;;;;;;;;;5034047;28;20186;-74
2021/05/08 11:15:51;;;;;;;7.13;2.83;;;;;;;;;;5057004;28;20174;-74
2021/05/08 11:18:35;;;;;;;4.22;2.60;;;;;;;;;;5032657;28;20246;-76
2021/05/08 11:21:03;;;;;;;5.32;3.40;;;;;;;;;;5034696;28;20205;-76
2021/05/08 11:23:42;;;;;;;4.78;2.58;;;;;;;;;;5032992;28;20187;-77
2021/05/08 11:26:24;;;;;;;3.70;3.05;;;;;;;;;;5031377;28;20191;-75
2021/05/08 11:28:53;;;;;;;5.90;2.70;;;;;;;;;;5030827;28;20183;-75
2021/05/08 11:31:26;;;;;;;6.32;3.80;;;;;;;;;;5030070;28;20433;-75
2021/05/08 11:33:52;;;;;;;4.78;3.20;;;;;;;;;;5039829;28;20184;-75
2021/05/08 11:36:18;;;;;;;2.88;2.22;;;;;;;;;;5049734;28;20174;-75
2021/05/08 11:38:44;;;;;;;5.32;2.75;;;;;;;;;;5037069;28;20185;-77
2021/05/08 11:41:24;;;;;;;3.58;2.75;;;;;;;;;;5031125;28;20916;-76
2021/05/08 11:43:54;;;;;;;4.50;2.35;;;;;;;;;;5031652;28;20246;-78
2021/05/08 11:46:23;;;;;;;7.07;2.72;;;;;;;;;;5030116;28;20198;-76
2021/05/08 11:48:49;;;;;;;5.45;2.63;;;;;;;;;;5041254;28;20185;-74
2021/05/08 11:51:15;;;;;;;2.45;2.22;;;;;;;;;;5043365;28;20204;-73
2021/05/08 11:53:42;;;;;;;4.97;2.88;;;;;;;;;;5036874;28;20202;-76
2021/05/08 11:56:08;;;;;;;5.15;2.67;;;;;;;;;;5034261;28;20190;-78
2021/05/08 11:58:34;;;;;;;3.15;2.45;;;;;;;;;;5035769;28;20200;-78
2021/05/08 12:01:00;;;;;;;3.03;2.67;;;;;;;;;;5038821;28;20183;-78
2021/05/08 12:03:28;;;;;;;4.30;2.93;;;;;;;;;;5040086;28;20183;-77
2021/05/08 12:05:54;;;;;;;4.13;2.63;;;;;;;;;;5037828;28;20465;-77
2021/05/08 12:08:24;;;;;;;4.20;2.90;;;;;;;;;;5039235;28;20186;-76
2021/05/08 12:10:50;;;;;;;3.13;2.70;;;;;;;;;;5031334;28;20216;-76
2021/05/08 12:13:17;;;;;;;6.18;2.90;;;;;;;;;;5030880;28;20186;-75
2021/05/08 12:15:45;;;;;;;2.90;2.33;;;;;;;;;;5054634;28;20174;-75
2021/05/08 12:18:15;;;;;;;3.40;2.80;;;;;;;;;;5037620;28;20194;-74
2021/05/08 12:20:42;;;;;;;4.03;2.95;;;;;;;;;;5037281;28;20178;-77
2021/05/08 12:23:12;;;;;;;2.60;2.40;;;;;;;;;;5032275;28;20240;-76
2021/05/08 12:25:38;;;;;;;2.97;2.30;;;;;;;;;;5057046;28;20187;-76
2021/05/08 12:28:17;;;;;;;2.88;2.30;;;;;;;;;;5028207;28;20190;-76
2021/05/08 12:30:43;;;;;;;5.57;2.67;;;;;;;;;;5041850;28;20178;-78
2021/05/08 12:33:19;;;;;;;2.35;2.15;;;;;;;;;;5031669;28;20201;-76
2021/05/08 12:35:46;;;;;;;3.08;2.40;;;;;;;;;;5041195;28;20176;-74
2021/05/08 12:38:12;;;;;;;4.80;3.50;;;;;;;;;;5033523;28;20200;-76
2021/05/08 12:40:38;;;;;;;5.97;3.60;;;;;;;;;;5038793;28;20643;-76
2021/05/08 12:43:04;;;;;;;2.23;1.93;;;;;;;;;;5053339;28;20189;-75
2021/05/08 12:45:30;;;;;;;4.37;2.00;;;;;;;;;;5051181;28;20544;-75
2021/05/08 12:47:56;;;;;;;2.43;2.00;;;;;;;;;;5033609;28;20476;-75
2021/05/08 12:50:26;;;;;;;4.40;2.30;;;;;;;;;;5038459;28;20444;-77
2021/05/08 12:53:05;;;;;;;5.53;2.20;;;;;;;;;;5034378;28;20449;-76
2021/05/08 12:55:32;;;;;;;3.00;1.90;;;;;;;;;;5049765;28;20418;-78
2021/05/08 12:58:14;;;;;;;4.40;2.50;;;;;;;;;;5032376;28;20498;-76
2021/05/08 13:00:49;;;;;;;4.30;2.10;;;;;;;;;;5032528;28;20964;-77
2021/05/08 13:06:05;;;;;;;2.90;1.87;;;;;;;;;;5035486;28;20424;-76
2021/05/08 13:08:48;;;;;;;4.60;2.23;;;;;;;;;;5033325;28;20471;-75
2021/05/08 13:11:33;;;;;;;2.37;1.97;;;;;;;;;;5029820;28;20473;-74
2021/05/08 13:14:30;;;;;;;3.07;2.20;;;;;;;;;;5030188;28;20407;-75
2021/05/08 13:16:57;;;;;;;5.47;2.23;;;;;;;;;;5018146;28;20442;-76
2021/05/08 13:19:24;;;;;;;4.90;1.90;;;;;;;;;;5033142;28;20467;-77
2021/05/08 13:21:51;;;;;;;4.73;2.00;;;;;;;;;;5027891;28;20432;-76
2021/05/08 13:24:33;;;;;;;2.10;2.00;;;;;;;;;;5030323;28;20407;-77
2021/05/08 13:27:00;;;;;;;4.67;2.03;;;;;;;;;;5025992;28;20451;-79
2021/05/08 13:29:26;;;;;;;3.33;2.07;;;;;;;;;;5027460;28;20495;-78
2021/05/08 13:31:52;;;;;;;3.00;2.40;;;;;;;;;;5026431;28;20488;-75
2021/05/08 13:34:18;;;;;;;4.07;2.23;;;;;;;;;;5028602;28;20926;-76
2021/05/08 13:36:45;;;;;;;3.83;2.30;;;;;;;;;;5035957;28;20403;-77
2021/05/08 13:39:11;;;;;;;2.40;1.73;;;;;;;;;;5035669;28;20925;-75
2021/05/08 13:41:37;;;;;;;1.97;1.80;;;;;;;;;;5039718;28;20422;-76
2021/05/08 13:44:03;;;;;;;1.70;1.60;;;;;;;;;;5033200;28;20558;-76
2021/05/08 13:46:29;;;;;;;2.80;2.20;;;;;;;;;;5055282;28;20439;-74
2021/05/08 13:48:55;;;;;;;4.27;2.20;;;;;;;;;;5033456;28;20457;-77
2021/05/08 13:51:21;;;;;;;2.60;2.30;;;;;;;;;;5044307;28;20519;-79
2021/05/08 13:53:47;;;;;;;2.33;2.13;;;;;;;;;;5038251;28;20916;-79
2021/05/08 13:56:13;;;;;;;4.67;2.47;;;;;;;;;;5034166;28;20448;-76
2021/05/08 13:58:39;;;;;;;1.80;1.70;;;;;;;;;;5042358;28;20441;-77
2021/05/08 14:01:05;;;;;;;3.43;2.77;;;;;;;;;;5032276;28;20437;-80
2021/05/08 14:03:30;;;;;;;3.37;2.60;;;;;;;;;;5034635;28;20432;-77
2021/05/08 14:05:56;;;;;;;2.63;2.27;;;;;;;;;;5037321;28;20480;-80
2021/05/08 14:08:22;;;;;;;2.57;2.23;;;;;;;;;;5034427;28;20443;-76
2021/05/08 14:10:48;;;;;;;2.60;1.90;;;;;;;;;;5039194;28;20411;-76
2021/05/08 14:13:14;;;;;;;1.67;1.57;;;;;;;;;;5042316;28;20531;-75
2021/05/08 14:15:40;;;;;;;2.73;1.80;;;;;;;;;;5032105;28;20392;-79
2021/05/08 14:18:06;;;;;;;3.27;1.77;;;;;;;;;;5058303;28;20458;-76
2021/05/08 14:20:32;;;;;;;5.57;1.83;;;;;;;;;;5041980;28;20543;-77
2021/05/08 14:22:58;;;;;;;2.90;1.93;;;;;;;;;;5038500;28;20500;-78
2021/05/08 14:25:24;;;;;;;2.43;1.90;;;;;;;;;;5036637;28;20436;-79
2021/05/08 14:27:50;;;;;;;1.90;1.80;;;;;;;;;;5038502;28;20429;-75
2021/05/08 14:30:16;;;;;;;2.53;1.70;;;;;;;;;;5044530;28;20395;-79
2021/05/08 14:32:43;;;;;;;1.93;1.80;;;;;;;;;;5035410;28;20458;-78
2021/05/08 14:35:09;;;;;;;2.45;2.10;;;;;;;;;;5029376;28;20472;-77
2021/05/08 14:37:35;;;;;;;4.13;1.90;;;;;;;;;;5031176;28;20178;-77
2021/05/08 14:40:01;;;;;;;2.03;1.73;;;;;;;;;;5030318;28;20882;-77
2021/05/08 14:42:27;;;;;;;3.43;1.80;;;;;;;;;;5034503;28;20493;-76
2021/05/08 14:44:53;;;;;;;1.97;1.80;;;;;;;;;;5035572;28;20469;-77
2021/05/08 14:47:19;;;;;;;2.90;2.53;;;;;;;;;;5036034;28;20480;-76